sensor_id;sensor_type;location;lat;lon;timestamp;P1;durP1;ratioP1;P2;durP2;ratioP2
47603;SDS011;33326;51.116;6.900;2022-10-31T00:00:18;18.27;;;8.57;;
47603;SDS011;33326;51.116;6.900;2022-10-31T00:05:22;19.30;;;9.35;;
47603;SDS011;33326;51.116;6.900;2022-10-31T00:10:24;17.73;;;8.68;;
47603;SDS011;33326;51.116;6.900;2022-10-31T00:15:26;12.68;;;8.38;;
47603;SDS011;33326;51.116;6.900;2022-10-31T00:20:29;16.55;;;8.55;;
47603;SDS011;33326;51.116;6.900;2022-10-31T00:25:33;17.55;;;9.55;;
47603;SDS011;33326;51.116;6.900;2022-10-31T00:30:36;15.57;;;8.38;;
47603;SDS011;33326;51.116;6.900;2022-10-31T00:35:39;17.67;;;8.93;;
47603;SDS011;33326;51.116;6.900;2022-10-31T00:40:41;14.15;;;7.90;;
47603;SDS011;33326;51.116;6.900;2022-10-31T00:45:43;16.15;;;8.70;;
47603;SDS011;33326;51.116;6.900;2022-10-31T00:50:47;17.08;;;8.40;;
47603;SDS011;33326;51.116;6.900;2022-10-31T00:55:50;15.23;;;9.02;;
47603;SDS011;33326;51.116;6.900;2022-10-31T01:00:52;16.70;;;8.35;;
47603;SDS011;33326;51.116;6.900;2022-10-31T01:05:58;17.73;;;8.63;;
47603;SDS011;33326;51.116;6.900;2022-10-31T01:11:02;16.02;;;8.60;;
47603;SDS011;33326;51.116;6.900;2022-10-31T01:16:07;16.45;;;8.48;;
47603;SDS011;33326;51.116;6.900;2022-10-31T01:21:14;15.75;;;8.07;;
47603;SDS011;33326;51.116;6.900;2022-10-31T01:26:18;13.70;;;7.53;;
47603;SDS011;33326;51.116;6.900;2022-10-31T01:31:23;22.85;;;8.50;;
47603;SDS011;33326;51.116;6.900;2022-10-31T01:36:29;18.10;;;8.68;;
47603;SDS011;33326;51.116;6.900;2022-10-31T01:41:33;20.10;;;9.27;;
47603;SDS011;33326;51.116;6.900;2022-10-31T01:46:38;17.08;;;8.38;;
47603;SDS011;33326;51.116;6.900;2022-10-31T01:51:47;16.15;;;8.27;;
47603;SDS011;33326;51.116;6.900;2022-10-31T01:56:52;15.70;;;8.52;;
47603;SDS011;33326;51.116;6.900;2022-10-31T02:01:57;14.13;;;8.52;;
47603;SDS011;33326;51.116;6.900;2022-10-31T02:07:02;17.85;;;8.40;;
47603;SDS011;33326;51.116;6.900;2022-10-31T02:12:08;14.98;;;8.10;;
47603;SDS011;33326;51.116;6.900;2022-10-31T02:17:12;12.98;;;7.82;;
47603;SDS011;33326;51.116;6.900;2022-10-31T02:22:17;13.13;;;7.53;;
47603;SDS011;33326;51.116;6.900;2022-10-31T02:27:31;18.13;;;8.18;;
47603;SDS011;33326;51.116;6.900;2022-10-31T02:33:01;16.75;;;8.27;;
47603;SDS011;33326;51.116;6.900;2022-10-31T02:38:30;12.48;;;7.60;;
47603;SDS011;33326;51.116;6.900;2022-10-31T02:43:44;15.65;;;7.95;;
47603;SDS011;33326;51.116;6.900;2022-10-31T02:49:03;17.20;;;7.90;;
47603;SDS011;33326;51.116;6.900;2022-10-31T02:54:17;15.48;;;8.10;;
47603;SDS011;33326;51.116;6.900;2022-10-31T02:59:23;16.05;;;8.35;;
47603;SDS011;33326;51.116;6.900;2022-10-31T03:04:34;15.02;;;8.10;;
47603;SDS011;33326;51.116;6.900;2022-10-31T03:09:46;14.20;;;9.02;;
47603;SDS011;33326;51.116;6.900;2022-10-31T03:14:56;17.45;;;8.18;;
47603;SDS011;33326;51.116;6.900;2022-10-31T03:20:07;15.30;;;8.25;;
47603;SDS011;33326;51.116;6.900;2022-10-31T03:25:11;13.73;;;7.78;;
47603;SDS011;33326;51.116;6.900;2022-10-31T03:30:14;13.98;;;7.80;;
47603;SDS011;33326;51.116;6.900;2022-10-31T03:35:30;15.15;;;8.07;;
47603;SDS011;33326;51.116;6.900;2022-10-31T03:40:36;15.32;;;8.20;;
47603;SDS011;33326;51.116;6.900;2022-10-31T03:45:43;17.63;;;8.25;;
47603;SDS011;33326;51.116;6.900;2022-10-31T03:50:49;13.13;;;8.13;;
47603;SDS011;33326;51.116;6.900;2022-10-31T03:55:59;13.57;;;8.13;;
47603;SDS011;33326;51.116;6.900;2022-10-31T04:01:06;15.57;;;9.00;;
47603;SDS011;33326;51.116;6.900;2022-10-31T04:06:16;16.00;;;7.72;;
47603;SDS011;33326;51.116;6.900;2022-10-31T04:11:21;17.23;;;7.90;;
47603;SDS011;33326;51.116;6.900;2022-10-31T04:16:45;14.93;;;7.68;;
47603;SDS011;33326;51.116;6.900;2022-10-31T04:21:49;18.88;;;8.48;;
47603;SDS011;33326;51.116;6.900;2022-10-31T04:26:51;18.13;;;9.07;;
47603;SDS011;33326;51.116;6.900;2022-10-31T04:31:55;13.82;;;8.40;;
47603;SDS011;33326;51.116;6.900;2022-10-31T04:36:58;14.07;;;7.82;;
47603;SDS011;33326;51.116;6.900;2022-10-31T04:42:01;16.50;;;8.55;;
47603;SDS011;33326;51.116;6.900;2022-10-31T04:47:03;17.20;;;7.88;;
47603;SDS011;33326;51.116;6.900;2022-10-31T04:52:07;30.40;;;8.70;;
47603;SDS011;33326;51.116;6.900;2022-10-31T04:57:10;19.55;;;9.18;;
47603;SDS011;33326;51.116;6.900;2022-10-31T05:02:12;15.90;;;8.93;;
47603;SDS011;33326;51.116;6.900;2022-10-31T05:07:39;19.85;;;8.52;;
47603;SDS011;33326;51.116;6.900;2022-10-31T05:12:45;18.02;;;8.68;;
47603;SDS011;33326;51.116;6.900;2022-10-31T05:18:11;19.27;;;9.10;;
47603;SDS011;33326;51.116;6.900;2022-10-31T05:23:34;15.63;;;8.40;;
47603;SDS011;33326;51.116;6.900;2022-10-31T05:28:40;18.15;;;8.65;;
47603;SDS011;33326;51.116;6.900;2022-10-31T05:33:45;15.15;;;8.43;;
47603;SDS011;33326;51.116;6.900;2022-10-31T05:39:26;17.30;;;9.20;;
47603;SDS011;33326;51.116;6.900;2022-10-31T05:44:38;17.15;;;9.27;;
47603;SDS011;33326;51.116;6.900;2022-10-31T05:49:54;18.75;;;9.15;;
47603;SDS011;33326;51.116;6.900;2022-10-31T06:00:35;16.65;;;9.25;;
47603;SDS011;33326;51.116;6.900;2022-10-31T06:05:41;18.75;;;9.55;;
47603;SDS011;33326;51.116;6.900;2022-10-31T06:10:45;18.60;;;9.70;;
47603;SDS011;33326;51.116;6.900;2022-10-31T06:15:50;19.15;;;9.88;;
47603;SDS011;33326;51.116;6.900;2022-10-31T06:20:55;21.95;;;10.52;;
47603;SDS011;33326;51.116;6.900;2022-10-31T06:25:59;17.35;;;9.48;;
47603;SDS011;33326;51.116;6.900;2022-10-31T06:31:00;19.27;;;9.07;;
47603;SDS011;33326;51.116;6.900;2022-10-31T06:36:05;20.42;;;9.57;;
47603;SDS011;33326;51.116;6.900;2022-10-31T06:41:08;18.50;;;9.77;;
47603;SDS011;33326;51.116;6.900;2022-10-31T06:46:18;20.63;;;9.55;;
47603;SDS011;33326;51.116;6.900;2022-10-31T06:51:39;23.02;;;10.52;;
47603;SDS011;33326;51.116;6.900;2022-10-31T06:56:42;18.92;;;10.05;;
47603;SDS011;33326;51.116;6.900;2022-10-31T07:01:47;19.55;;;10.55;;
47603;SDS011;33326;51.116;6.900;2022-10-31T07:06:50;20.02;;;9.75;;
47603;SDS011;33326;51.116;6.900;2022-10-31T07:11:55;17.33;;;10.15;;
47603;SDS011;33326;51.116;6.900;2022-10-31T07:16:57;13.00;;;9.48;;
47603;SDS011;33326;51.116;6.900;2022-10-31T07:22:06;21.77;;;11.18;;
47603;SDS011;33326;51.116;6.900;2022-10-31T07:27:10;16.40;;;10.23;;
47603;SDS011;33326;51.116;6.900;2022-10-31T07:32:12;28.90;;;11.43;;
47603;SDS011;33326;51.116;6.900;2022-10-31T07:37:20;22.95;;;11.48;;
47603;SDS011;33326;51.116;6.900;2022-10-31T07:42:23;20.35;;;10.60;;
47603;SDS011;33326;51.116;6.900;2022-10-31T07:47:25;23.48;;;11.57;;
47603;SDS011;33326;51.116;6.900;2022-10-31T07:52:46;21.80;;;11.10;;
47603;SDS011;33326;51.116;6.900;2022-10-31T07:58:19;22.52;;;11.55;;
47603;SDS011;33326;51.116;6.900;2022-10-31T08:03:21;23.63;;;11.15;;
47603;SDS011;33326;51.116;6.900;2022-10-31T08:08:42;20.33;;;11.75;;
47603;SDS011;33326;51.116;6.900;2022-10-31T08:13:46;21.67;;;11.90;;
47603;SDS011;33326;51.116;6.900;2022-10-31T08:18:49;29.60;;;11.65;;
47603;SDS011;33326;51.116;6.900;2022-10-31T08:23:51;24.42;;;11.82;;
47603;SDS011;33326;51.116;6.900;2022-10-31T08:28:58;22.95;;;10.90;;
47603;SDS011;33326;51.116;6.900;2022-10-31T08:34:05;19.55;;;10.93;;
47603;SDS011;33326;51.116;6.900;2022-10-31T08:44:39;21.60;;;10.82;;
47603;SDS011;33326;51.116;6.900;2022-10-31T08:49:41;23.85;;;11.65;;
47603;SDS011;33326;51.116;6.900;2022-10-31T08:54:43;23.00;;;11.15;;
47603;SDS011;33326;51.116;6.900;2022-10-31T09:00:06;17.88;;;10.85;;
47603;SDS011;33326;51.116;6.900;2022-10-31T09:05:33;19.02;;;11.68;;
47603;SDS011;33326;51.116;6.900;2022-10-31T09:10:36;24.98;;;11.52;;
47603;SDS011;33326;51.116;6.900;2022-10-31T09:15:39;22.80;;;11.38;;
47603;SDS011;33326;51.116;6.900;2022-10-31T09:20:57;24.98;;;11.30;;
47603;SDS011;33326;51.116;6.900;2022-10-31T09:26:01;23.23;;;12.38;;
47603;SDS011;33326;51.116;6.900;2022-10-31T09:31:23;18.73;;;12.15;;
47603;SDS011;33326;51.116;6.900;2022-10-31T09:36:50;24.05;;;12.45;;
47603;SDS011;33326;51.116;6.900;2022-10-31T09:42:01;20.65;;;11.70;;
47603;SDS011;33326;51.116;6.900;2022-10-31T09:47:23;20.83;;;11.75;;
47603;SDS011;33326;51.116;6.900;2022-10-31T09:52:51;20.98;;;10.80;;
47603;SDS011;33326;51.116;6.900;2022-10-31T09:58:02;20.02;;;11.48;;
47603;SDS011;33326;51.116;6.900;2022-10-31T10:03:07;22.77;;;11.70;;
47603;SDS011;33326;51.116;6.900;2022-10-31T10:08:23;22.95;;;12.27;;
47603;SDS011;33326;51.116;6.900;2022-10-31T10:13:55;22.05;;;12.40;;
47603;SDS011;33326;51.116;6.900;2022-10-31T10:19:10;21.35;;;12.27;;
47603;SDS011;33326;51.116;6.900;2022-10-31T10:24:30;25.45;;;12.02;;
47603;SDS011;33326;51.116;6.900;2022-10-31T10:29:47;21.60;;;11.32;;
47603;SDS011;33326;51.116;6.900;2022-10-31T10:34:57;24.88;;;11.23;;
47603;SDS011;33326;51.116;6.900;2022-10-31T10:40:06;24.08;;;10.05;;
47603;SDS011;33326;51.116;6.900;2022-10-31T10:45:14;20.92;;;10.65;;
47603;SDS011;33326;51.116;6.900;2022-10-31T10:50:39;21.38;;;10.48;;
47603;SDS011;33326;51.116;6.900;2022-10-31T10:55:44;22.98;;;9.80;;
47603;SDS011;33326;51.116;6.900;2022-10-31T11:00:52;19.90;;;9.98;;
47603;SDS011;33326;51.116;6.900;2022-10-31T11:05:57;16.80;;;9.20;;
47603;SDS011;33326;51.116;6.900;2022-10-31T11:11:01;21.20;;;8.27;;
47603;SDS011;33326;51.116;6.900;2022-10-31T11:16:06;18.48;;;7.80;;
47603;SDS011;33326;51.116;6.900;2022-10-31T11:21:19;18.13;;;8.32;;
47603;SDS011;33326;51.116;6.900;2022-10-31T11:26:23;20.83;;;7.10;;
47603;SDS011;33326;51.116;6.900;2022-10-31T11:31:25;21.00;;;6.82;;
47603;SDS011;33326;51.116;6.900;2022-10-31T11:36:29;14.10;;;5.80;;
47603;SDS011;33326;51.116;6.900;2022-10-31T11:41:33;16.13;;;6.20;;
47603;SDS011;33326;51.116;6.900;2022-10-31T11:46:39;12.20;;;5.63;;
47603;SDS011;33326;51.116;6.900;2022-10-31T11:51:46;12.65;;;5.72;;
47603;SDS011;33326;51.116;6.900;2022-10-31T11:56:50;12.32;;;5.53;;
47603;SDS011;33326;51.116;6.900;2022-10-31T12:01:53;12.18;;;5.20;;
47603;SDS011;33326;51.116;6.900;2022-10-31T12:06:58;13.82;;;5.32;;
47603;SDS011;33326;51.116;6.900;2022-10-31T12:12:11;12.05;;;5.35;;
47603;SDS011;33326;51.116;6.900;2022-10-31T12:17:26;13.15;;;5.40;;
47603;SDS011;33326;51.116;6.900;2022-10-31T12:22:39;9.60;;;4.40;;
47603;SDS011;33326;51.116;6.900;2022-10-31T12:27:54;12.10;;;5.00;;
47603;SDS011;33326;51.116;6.900;2022-10-31T12:33:25;13.70;;;5.20;;
47603;SDS011;33326;51.116;6.900;2022-10-31T12:38:56;13.20;;;4.80;;
47603;SDS011;33326;51.116;6.900;2022-10-31T12:44:09;13.35;;;4.70;;
47603;SDS011;33326;51.116;6.900;2022-10-31T12:49:18;14.52;;;4.60;;
47603;SDS011;33326;51.116;6.900;2022-10-31T12:54:41;17.42;;;5.25;;
47603;SDS011;33326;51.116;6.900;2022-10-31T13:00:04;13.38;;;4.78;;
47603;SDS011;33326;51.116;6.900;2022-10-31T13:05:13;10.57;;;4.63;;
47603;SDS011;33326;51.116;6.900;2022-10-31T13:10:22;12.93;;;4.85;;
47603;SDS011;33326;51.116;6.900;2022-10-31T13:15:28;11.88;;;4.55;;
47603;SDS011;33326;51.116;6.900;2022-10-31T13:20:37;15.35;;;4.72;;
47603;SDS011;33326;51.116;6.900;2022-10-31T13:25:44;8.43;;;4.22;;
47603;SDS011;33326;51.116;6.900;2022-10-31T13:30:49;13.18;;;4.80;;
47603;SDS011;33326;51.116;6.900;2022-10-31T13:35:53;17.38;;;4.82;;
47603;SDS011;33326;51.116;6.900;2022-10-31T13:41:22;12.93;;;4.68;;
47603;SDS011;33326;51.116;6.900;2022-10-31T13:46:43;9.68;;;4.45;;
47603;SDS011;33326;51.116;6.900;2022-10-31T13:51:45;11.23;;;4.70;;
47603;SDS011;33326;51.116;6.900;2022-10-31T13:56:50;13.43;;;4.45;;
47603;SDS011;33326;51.116;6.900;2022-10-31T14:01:54;14.35;;;4.88;;
47603;SDS011;33326;51.116;6.900;2022-10-31T14:06:59;15.10;;;4.72;;
47603;SDS011;33326;51.116;6.900;2022-10-31T14:12:09;14.25;;;4.53;;
47603;SDS011;33326;51.116;6.900;2022-10-31T14:17:23;11.85;;;4.50;;
47603;SDS011;33326;51.116;6.900;2022-10-31T14:22:30;13.02;;;4.70;;
47603;SDS011;33326;51.116;6.900;2022-10-31T14:27:42;11.65;;;4.38;;
47603;SDS011;33326;51.116;6.900;2022-10-31T14:32:48;14.30;;;5.15;;
47603;SDS011;33326;51.116;6.900;2022-10-31T14:37:57;13.15;;;4.20;;
47603;SDS011;33326;51.116;6.900;2022-10-31T14:49:12;11.77;;;4.30;;
47603;SDS011;33326;51.116;6.900;2022-10-31T14:54:27;10.20;;;4.53;;
47603;SDS011;33326;51.116;6.900;2022-10-31T14:59:33;13.63;;;4.75;;
47603;SDS011;33326;51.116;6.900;2022-10-31T15:04:38;16.13;;;5.10;;
47603;SDS011;33326;51.116;6.900;2022-10-31T15:09:41;11.63;;;4.43;;
47603;SDS011;33326;51.116;6.900;2022-10-31T15:14:45;13.00;;;4.55;;
47603;SDS011;33326;51.116;6.900;2022-10-31T15:19:46;14.77;;;4.80;;
47603;SDS011;33326;51.116;6.900;2022-10-31T15:24:49;13.05;;;4.50;;
47603;SDS011;33326;51.116;6.900;2022-10-31T15:29:57;12.35;;;4.55;;
47603;SDS011;33326;51.116;6.900;2022-10-31T15:34:59;10.32;;;3.78;;
47603;SDS011;33326;51.116;6.900;2022-10-31T15:40:06;15.85;;;4.65;;
47603;SDS011;33326;51.116;6.900;2022-10-31T15:45:17;10.63;;;4.70;;
47603;SDS011;33326;51.116;6.900;2022-10-31T15:50:23;13.02;;;4.35;;
47603;SDS011;33326;51.116;6.900;2022-10-31T15:55:32;13.85;;;4.00;;
47603;SDS011;33326;51.116;6.900;2022-10-31T16:00:57;13.05;;;4.30;;
47603;SDS011;33326;51.116;6.900;2022-10-31T16:06:01;12.95;;;4.20;;
47603;SDS011;33326;51.116;6.900;2022-10-31T16:11:15;9.98;;;4.30;;
47603;SDS011;33326;51.116;6.900;2022-10-31T16:16:24;11.65;;;4.05;;
47603;SDS011;33326;51.116;6.900;2022-10-31T16:21:28;12.40;;;4.20;;
47603;SDS011;33326;51.116;6.900;2022-10-31T16:26:33;16.13;;;4.53;;
47603;SDS011;33326;51.116;6.900;2022-10-31T16:31:37;15.77;;;4.20;;
47603;SDS011;33326;51.116;6.900;2022-10-31T16:36:41;11.10;;;4.10;;
47603;SDS011;33326;51.116;6.900;2022-10-31T16:41:44;14.48;;;3.95;;
47603;SDS011;33326;51.116;6.900;2022-10-31T16:46:51;10.18;;;3.90;;
47603;SDS011;33326;51.116;6.900;2022-10-31T16:52:13;10.90;;;4.03;;
47603;SDS011;33326;51.116;6.900;2022-10-31T16:57:16;10.07;;;4.00;;
47603;SDS011;33326;51.116;6.900;2022-10-31T17:02:23;15.52;;;4.50;;
47603;SDS011;33326;51.116;6.900;2022-10-31T17:07:25;11.15;;;4.38;;
47603;SDS011;33326;51.116;6.900;2022-10-31T17:12:27;13.05;;;4.55;;
47603;SDS011;33326;51.116;6.900;2022-10-31T17:17:30;10.52;;;4.35;;
47603;SDS011;33326;51.116;6.900;2022-10-31T17:22:32;11.80;;;4.32;;
47603;SDS011;33326;51.116;6.900;2022-10-31T17:27:34;12.88;;;4.50;;
47603;SDS011;33326;51.116;6.900;2022-10-31T17:32:37;11.25;;;4.47;;
47603;SDS011;33326;51.116;6.900;2022-10-31T17:37:39;15.32;;;5.10;;
47603;SDS011;33326;51.116;6.900;2022-10-31T17:42:45;14.10;;;4.05;;
47603;SDS011;33326;51.116;6.900;2022-10-31T17:47:51;16.10;;;4.03;;
47603;SDS011;33326;51.116;6.900;2022-10-31T17:52:53;15.65;;;4.45;;
47603;SDS011;33326;51.116;6.900;2022-10-31T17:57:57;10.80;;;4.47;;
47603;SDS011;33326;51.116;6.900;2022-10-31T18:03:01;10.77;;;4.07;;
47603;SDS011;33326;51.116;6.900;2022-10-31T18:08:03;8.15;;;4.03;;
47603;SDS011;33326;51.116;6.900;2022-10-31T18:13:05;11.35;;;4.68;;
47603;SDS011;33326;51.116;6.900;2022-10-31T18:18:09;17.42;;;5.53;;
47603;SDS011;33326;51.116;6.900;2022-10-31T18:23:10;12.35;;;5.15;;
47603;SDS011;33326;51.116;6.900;2022-10-31T18:28:13;10.68;;;4.20;;
47603;SDS011;33326;51.116;6.900;2022-10-31T18:33:16;12.13;;;5.70;;
47603;SDS011;33326;51.116;6.900;2022-10-31T18:38:18;13.13;;;4.93;;
47603;SDS011;33326;51.116;6.900;2022-10-31T18:43:20;13.80;;;4.78;;
47603;SDS011;33326;51.116;6.900;2022-10-31T18:48:23;13.90;;;5.80;;
47603;SDS011;33326;51.116;6.900;2022-10-31T18:53:27;12.90;;;5.45;;
47603;SDS011;33326;51.116;6.900;2022-10-31T18:58:29;12.65;;;5.43;;
47603;SDS011;33326;51.116;6.900;2022-10-31T19:03:34;14.57;;;4.65;;
47603;SDS011;33326;51.116;6.900;2022-10-31T19:08:37;11.77;;;5.18;;
47603;SDS011;33326;51.116;6.900;2022-10-31T19:13:40;14.85;;;5.45;;
47603;SDS011;33326;51.116;6.900;2022-10-31T19:18:43;14.95;;;5.20;;
47603;SDS011;33326;51.116;6.900;2022-10-31T19:23:45;12.68;;;5.13;;
47603;SDS011;33326;51.116;6.900;2022-10-31T19:28:47;16.60;;;5.22;;
47603;SDS011;33326;51.116;6.900;2022-10-31T19:33:51;14.02;;;5.05;;
47603;SDS011;33326;51.116;6.900;2022-10-31T19:38:53;16.40;;;5.00;;
47603;SDS011;33326;51.116;6.900;2022-10-31T19:43:57;14.38;;;5.93;;
47603;SDS011;33326;51.116;6.900;2022-10-31T19:49:00;12.13;;;5.00;;
47603;SDS011;33326;51.116;6.900;2022-10-31T19:54:03;14.48;;;5.25;;
47603;SDS011;33326;51.116;6.900;2022-10-31T19:59:05;11.85;;;5.00;;
47603;SDS011;33326;51.116;6.900;2022-10-31T20:04:08;10.13;;;5.90;;
47603;SDS011;33326;51.116;6.900;2022-10-31T20:09:11;14.48;;;5.15;;
47603;SDS011;33326;51.116;6.900;2022-10-31T20:14:14;13.05;;;5.28;;
47603;SDS011;33326;51.116;6.900;2022-10-31T20:19:19;11.70;;;5.22;;
47603;SDS011;33326;51.116;6.900;2022-10-31T20:24:21;13.63;;;5.53;;
47603;SDS011;33326;51.116;6.900;2022-10-31T20:29:23;10.52;;;4.90;;
47603;SDS011;33326;51.116;6.900;2022-10-31T20:34:26;11.68;;;4.93;;
47603;SDS011;33326;51.116;6.900;2022-10-31T20:39:28;15.85;;;5.63;;
47603;SDS011;33326;51.116;6.900;2022-10-31T20:44:31;11.45;;;4.72;;
47603;SDS011;33326;51.116;6.900;2022-10-31T20:49:34;13.07;;;5.00;;
47603;SDS011;33326;51.116;6.900;2022-10-31T20:54:36;16.52;;;5.10;;
47603;SDS011;33326;51.116;6.900;2022-10-31T20:59:38;15.68;;;5.13;;
47603;SDS011;33326;51.116;6.900;2022-10-31T21:04:41;12.68;;;5.18;;
47603;SDS011;33326;51.116;6.900;2022-10-31T21:09:43;13.57;;;6.38;;
47603;SDS011;33326;51.116;6.900;2022-10-31T21:14:45;18.38;;;10.45;;
47603;SDS011;33326;51.116;6.900;2022-10-31T21:19:48;28.50;;;16.33;;
47603;SDS011;33326;51.116;6.900;2022-10-31T21:24:50;16.25;;;7.43;;
47603;SDS011;33326;51.116;6.900;2022-10-31T21:29:52;11.98;;;7.05;;
47603;SDS011;33326;51.116;6.900;2022-10-31T21:34:56;10.18;;;5.47;;
47603;SDS011;33326;51.116;6.900;2022-10-31T21:39:57;16.33;;;4.72;;
47603;SDS011;33326;51.116;6.900;2022-10-31T21:44:59;9.40;;;4.63;;
47603;SDS011;33326;51.116;6.900;2022-10-31T21:50:03;13.48;;;4.95;;
47603;SDS011;33326;51.116;6.900;2022-10-31T21:55:05;12.65;;;5.35;;
47603;SDS011;33326;51.116;6.900;2022-10-31T22:00:08;10.88;;;4.90;;
47603;SDS011;33326;51.116;6.900;2022-10-31T22:05:12;14.98;;;5.10;;
47603;SDS011;33326;51.116;6.900;2022-10-31T22:10:14;13.18;;;4.93;;
47603;SDS011;33326;51.116;6.900;2022-10-31T22:15:16;10.00;;;4.60;;
47603;SDS011;33326;51.116;6.900;2022-10-31T22:20:23;16.13;;;5.20;;
47603;SDS011;33326;51.116;6.900;2022-10-31T22:25:25;13.90;;;5.20;;
47603;SDS011;33326;51.116;6.900;2022-10-31T22:30:27;10.32;;;4.90;;
47603;SDS011;33326;51.116;6.900;2022-10-31T22:35:30;14.40;;;5.05;;
47603;SDS011;33326;51.116;6.900;2022-10-31T22:40:34;13.88;;;4.57;;
47603;SDS011;33326;51.116;6.900;2022-10-31T22:45:36;13.23;;;4.32;;
47603;SDS011;33326;51.116;6.900;2022-10-31T22:50:39;11.07;;;4.63;;
47603;SDS011;33326;51.116;6.900;2022-10-31T22:55:41;11.30;;;4.35;;
47603;SDS011;33326;51.116;6.900;2022-10-31T23:00:43;13.10;;;4.80;;
47603;SDS011;33326;51.116;6.900;2022-10-31T23:05:54;14.25;;;4.85;;
47603;SDS011;33326;51.116;6.900;2022-10-31T23:10:56;10.82;;;4.70;;
47603;SDS011;33326;51.116;6.900;2022-10-31T23:15:58;13.65;;;4.93;;
47603;SDS011;33326;51.116;6.900;2022-10-31T23:21:02;11.45;;;5.07;;
47603;SDS011;33326;51.116;6.900;2022-10-31T23:26:05;14.73;;;5.30;;
47603;SDS011;33326;51.116;6.900;2022-10-31T23:31:25;10.80;;;5.10;;
47603;SDS011;33326;51.116;6.900;2022-10-31T23:36:29;11.10;;;4.82;;
47603;SDS011;33326;51.116;6.900;2022-10-31T23:41:31;16.27;;;5.78;;
47603;SDS011;33326;51.116;6.900;2022-10-31T23:46:32;14.32;;;5.03;;
47603;SDS011;33326;51.116;6.900;2022-10-31T23:51:36;14.52;;;5.53;;
47603;SDS011;33326;51.116;6.900;2022-10-31T23:56:38;14.40;;;5.80;;
